This is the latest recevied weather packets stored in our database for station/object KG5VSR. If no packets are shown the sender has not sent any weather packets the latest 10 day(s).
| Time | Temp. | Humidity | Pressure | Rain* | Wind** | Luminosity | Snow |
|---|---|---|---|---|---|---|---|
| 1777682346 | 16.67° C | 74% | 1017 hPa | 0 mm | - | 5 W/m² | - |
| 1777680547 | 16.67° C | 72% | 1016.8 hPa | 0 mm | - | 18 W/m² | - |
| 1777678744 | 17.22° C | 70% | 1016.2 hPa | 0 mm | - | 66 W/m² | - |
| 1777676939 | 17.22° C | 68% | 1016.1 hPa | 0 mm | - | 74 W/m² | - |
| 1777675134 | 17.22° C | 68% | 1016.3 hPa | 0 mm | - | 98 W/m² | - |
| 1777673333 | 17.22° C | 67% | 1015.9 hPa | 0 mm | - | 85 W/m² | - |
| 1777671533 | 17.22° C | 65% | 1016 hPa | 0 mm | - | 87 W/m² | - |
| 1777669732 | 17.22° C | 63% | 1015.8 hPa | 0 mm | - | 151 W/m² | - |
| 1777667929 | 17.22° C | 64% | 1016.7 hPa | 0 mm | - | 76 W/m² | - |
| 1777666128 | 17.78° C | 59% | 1016.8 hPa | 0 mm | - | 166 W/m² | - |
| 1777664324 | 17.22° C | 61% | 1015.8 hPa | 0 mm | - | 137 W/m² | - |
| 1777662519 | 17.22° C | 60% | 1015.9 hPa | 0 mm | - | 187 W/m² | - |
| 1777660718 | 17.78° C | 62% | 1016.1 hPa | 0 mm | - | 284 W/m² | - |
| 1777658917 | 18.33° C | 64% | 1017 hPa | 0 mm | - | 511 W/m² | - |
| 1777657116 | 17.22° C | 63% | 1017.3 hPa | 0 mm | - | 446 W/m² | - |
| 1777655312 | 16.11° C | 68% | 1017.7 hPa | 0 mm | - | 411 W/m² | - |
| 1777653506 | 15.56° C | 71% | 1017.9 hPa | 0 mm | - | 226 W/m² | - |
| 1777651705 | 15.56° C | 71% | 1017.8 hPa | 0 mm | - | 237 W/m² | - |
| 1777649905 | 14.44° C | 72% | 1018.1 hPa | 0 mm | - | 120 W/m² | - |
| 1777648101 | 14.44° C | 74% | 1017.7 hPa | 0 mm | - | 112 W/m² | - |
| 1777646298 | 14.44° C | 77% | 1018.4 hPa | 0 mm | - | 44 W/m² | - |
| 1777644496 | 14.44° C | 81% | 1017.6 hPa | 0 mm | - | 50 W/m² | - |
| 1777642693 | 14.44° C | 85% | 1017.2 hPa | 0 mm | - | 86 W/m² | - |
| 1777640893 | 14.44° C | 89% | 1018 hPa | 0 mm | - | 13 W/m² | - |
| 1777639090 | 14.44° C | 89% | 1017.3 hPa | 0 mm | - | 6 W/m² | - |
* Rain latest hour (hover to see other rain measurements)
** Current wind speed in m/s (hover to see current wind gust speed)